sensor_id;sensor_type;location;lat;lon;timestamp;P1;durP1;ratioP1;P2;durP2;ratioP2
44248;SDS011;29923;48.718;9.272;2023-09-12T00:00:36;18.23;;;8.90;;
44248;SDS011;29923;48.718;9.272;2023-09-12T00:03:02;14.52;;;8.57;;
44248;SDS011;29923;48.718;9.272;2023-09-12T00:05:27;17.23;;;8.60;;
44248;SDS011;29923;48.718;9.272;2023-09-12T00:07:52;23.58;;;9.35;;
44248;SDS011;29923;48.718;9.272;2023-09-12T00:10:21;20.00;;;8.32;;
44248;SDS011;29923;48.718;9.272;2023-09-12T00:12:46;17.73;;;7.32;;
44248;SDS011;29923;48.718;9.272;2023-09-12T00:15:11;18.58;;;8.20;;
44248;SDS011;29923;48.718;9.272;2023-09-12T00:17:37;21.88;;;9.70;;
44248;SDS011;29923;48.718;9.272;2023-09-12T00:20:03;19.23;;;9.32;;
44248;SDS011;29923;48.718;9.272;2023-09-12T00:22:31;17.73;;;8.93;;
44248;SDS011;29923;48.718;9.272;2023-09-12T00:24:56;16.58;;;8.77;;
44248;SDS011;29923;48.718;9.272;2023-09-12T00:27:21;20.13;;;8.70;;
44248;SDS011;29923;48.718;9.272;2023-09-12T00:29:47;14.38;;;7.72;;
44248;SDS011;29923;48.718;9.272;2023-09-12T00:32:12;21.85;;;8.65;;
44248;SDS011;29923;48.718;9.272;2023-09-12T00:34:37;15.50;;;7.93;;
44248;SDS011;29923;48.718;9.272;2023-09-12T00:37:03;15.63;;;8.23;;
44248;SDS011;29923;48.718;9.272;2023-09-12T00:39:28;22.63;;;9.52;;
44248;SDS011;29923;48.718;9.272;2023-09-12T00:41:53;19.27;;;7.80;;
44248;SDS011;29923;48.718;9.272;2023-09-12T00:44:19;20.25;;;9.27;;
44248;SDS011;29923;48.718;9.272;2023-09-12T00:46:44;19.50;;;8.50;;
44248;SDS011;29923;48.718;9.272;2023-09-12T00:49:10;22.33;;;8.07;;
44248;SDS011;29923;48.718;9.272;2023-09-12T00:51:37;19.13;;;8.23;;
44248;SDS011;29923;48.718;9.272;2023-09-12T00:54:02;16.40;;;8.52;;
44248;SDS011;29923;48.718;9.272;2023-09-12T00:56:28;15.00;;;7.82;;
44248;SDS011;29923;48.718;9.272;2023-09-12T00:58:53;17.48;;;8.30;;
44248;SDS011;29923;48.718;9.272;2023-09-12T01:01:19;16.00;;;7.30;;
44248;SDS011;29923;48.718;9.272;2023-09-12T01:03:45;17.42;;;8.73;;
44248;SDS011;29923;48.718;9.272;2023-09-12T01:06:10;19.25;;;8.60;;
44248;SDS011;29923;48.718;9.272;2023-09-12T01:08:35;14.07;;;7.88;;
44248;SDS011;29923;48.718;9.272;2023-09-12T01:11:04;13.98;;;8.10;;
44248;SDS011;29923;48.718;9.272;2023-09-12T01:13:29;15.50;;;9.20;;
44248;SDS011;29923;48.718;9.272;2023-09-12T01:15:55;20.77;;;8.45;;
44248;SDS011;29923;48.718;9.272;2023-09-12T01:18:20;17.67;;;8.68;;
44248;SDS011;29923;48.718;9.272;2023-09-12T01:20:56;21.85;;;10.20;;
44248;SDS011;29923;48.718;9.272;2023-09-12T01:29:05;20.92;;;8.70;;
44248;SDS011;29923;48.718;9.272;2023-09-12T01:31:31;19.80;;;10.30;;
44248;SDS011;29923;48.718;9.272;2023-09-12T01:33:58;20.67;;;9.40;;
44248;SDS011;29923;48.718;9.272;2023-09-12T01:36:33;18.30;;;8.88;;
44248;SDS011;29923;48.718;9.272;2023-09-12T01:38:58;17.05;;;8.20;;
44248;SDS011;29923;48.718;9.272;2023-09-12T01:41:24;15.80;;;7.63;;
44248;SDS011;29923;48.718;9.272;2023-09-12T01:43:49;15.63;;;9.38;;
44248;SDS011;29923;48.718;9.272;2023-09-12T01:46:15;15.43;;;8.80;;
44248;SDS011;29923;48.718;9.272;2023-09-12T01:48:42;17.00;;;8.50;;
44248;SDS011;29923;48.718;9.272;2023-09-12T01:51:08;18.73;;;8.77;;
44248;SDS011;29923;48.718;9.272;2023-09-12T01:53:34;17.65;;;7.88;;
44248;SDS011;29923;48.718;9.272;2023-09-12T01:55:59;16.38;;;8.73;;
44248;SDS011;29923;48.718;9.272;2023-09-12T01:58:25;16.48;;;8.23;;
44248;SDS011;29923;48.718;9.272;2023-09-12T02:00:51;20.23;;;9.15;;
44248;SDS011;29923;48.718;9.272;2023-09-12T02:03:16;18.90;;;7.85;;
44248;SDS011;29923;48.718;9.272;2023-09-12T02:05:42;19.17;;;8.18;;
44248;SDS011;29923;48.718;9.272;2023-09-12T02:08:07;18.23;;;8.32;;
44248;SDS011;29923;48.718;9.272;2023-09-12T02:10:32;20.48;;;7.65;;
44248;SDS011;29923;48.718;9.272;2023-09-12T02:12:58;15.35;;;8.00;;
44248;SDS011;29923;48.718;9.272;2023-09-12T02:15:23;21.20;;;8.52;;
44248;SDS011;29923;48.718;9.272;2023-09-12T02:17:49;18.85;;;9.75;;
44248;SDS011;29923;48.718;9.272;2023-09-12T02:20:17;16.27;;;8.43;;
44248;SDS011;29923;48.718;9.272;2023-09-12T02:22:44;18.48;;;8.98;;
44248;SDS011;29923;48.718;9.272;2023-09-12T02:25:10;15.75;;;8.05;;
44248;SDS011;29923;48.718;9.272;2023-09-12T02:27:35;14.70;;;7.93;;
44248;SDS011;29923;48.718;9.272;2023-09-12T02:30:01;19.45;;;9.95;;
44248;SDS011;29923;48.718;9.272;2023-09-12T02:32:27;23.55;;;8.70;;
44248;SDS011;29923;48.718;9.272;2023-09-12T02:34:53;18.48;;;8.93;;
44248;SDS011;29923;48.718;9.272;2023-09-12T02:37:18;18.67;;;9.77;;
44248;SDS011;29923;48.718;9.272;2023-09-12T02:39:44;18.98;;;8.57;;
44248;SDS011;29923;48.718;9.272;2023-09-12T02:42:09;19.17;;;10.38;;
44248;SDS011;29923;48.718;9.272;2023-09-12T02:44:34;17.95;;;8.48;;
44248;SDS011;29923;48.718;9.272;2023-09-12T02:47:00;21.90;;;10.02;;
44248;SDS011;29923;48.718;9.272;2023-09-12T02:49:25;20.00;;;9.75;;
44248;SDS011;29923;48.718;9.272;2023-09-12T02:51:50;16.15;;;8.65;;
44248;SDS011;29923;48.718;9.272;2023-09-12T02:54:16;16.05;;;9.07;;
44248;SDS011;29923;48.718;9.272;2023-09-12T02:56:41;17.63;;;9.23;;
44248;SDS011;29923;48.718;9.272;2023-09-12T02:59:06;15.30;;;8.85;;
44248;SDS011;29923;48.718;9.272;2023-09-12T03:01:32;15.10;;;8.70;;
44248;SDS011;29923;48.718;9.272;2023-09-12T03:03:57;14.90;;;8.05;;
44248;SDS011;29923;48.718;9.272;2023-09-12T03:06:22;23.98;;;9.00;;
44248;SDS011;29923;48.718;9.272;2023-09-12T03:08:48;19.73;;;9.43;;
44248;SDS011;29923;48.718;9.272;2023-09-12T03:11:13;16.08;;;8.73;;
44248;SDS011;29923;48.718;9.272;2023-09-12T03:13:42;19.10;;;8.23;;
44248;SDS011;29923;48.718;9.272;2023-09-12T03:16:11;16.92;;;9.00;;
44248;SDS011;29923;48.718;9.272;2023-09-12T03:18:36;18.05;;;9.07;;
44248;SDS011;29923;48.718;9.272;2023-09-12T03:21:02;19.30;;;8.45;;
44248;SDS011;29923;48.718;9.272;2023-09-12T03:23:27;17.80;;;8.98;;
44248;SDS011;29923;48.718;9.272;2023-09-12T03:25:53;17.92;;;8.38;;
44248;SDS011;29923;48.718;9.272;2023-09-12T03:28:18;20.05;;;9.60;;
44248;SDS011;29923;48.718;9.272;2023-09-12T03:30:43;17.05;;;7.80;;
44248;SDS011;29923;48.718;9.272;2023-09-12T03:33:09;23.38;;;8.75;;
44248;SDS011;29923;48.718;9.272;2023-09-12T03:35:34;18.48;;;8.65;;
44248;SDS011;29923;48.718;9.272;2023-09-12T03:38:00;15.38;;;8.07;;
44248;SDS011;29923;48.718;9.272;2023-09-12T03:40:27;17.50;;;8.15;;
44248;SDS011;29923;48.718;9.272;2023-09-12T03:42:54;20.00;;;8.55;;
44248;SDS011;29923;48.718;9.272;2023-09-12T03:45:19;19.83;;;7.85;;
44248;SDS011;29923;48.718;9.272;2023-09-12T03:47:45;18.80;;;8.05;;
44248;SDS011;29923;48.718;9.272;2023-09-12T03:50:11;18.38;;;8.65;;
44248;SDS011;29923;48.718;9.272;2023-09-12T03:52:38;14.93;;;9.57;;
44248;SDS011;29923;48.718;9.272;2023-09-12T03:55:03;21.00;;;9.20;;
44248;SDS011;29923;48.718;9.272;2023-09-12T03:57:28;17.13;;;8.60;;
44248;SDS011;29923;48.718;9.272;2023-09-12T03:59:54;19.73;;;9.95;;
44248;SDS011;29923;48.718;9.272;2023-09-12T04:02:19;17.95;;;9.18;;
44248;SDS011;29923;48.718;9.272;2023-09-12T04:04:44;20.95;;;9.02;;
44248;SDS011;29923;48.718;9.272;2023-09-12T04:07:10;16.67;;;9.20;;
44248;SDS011;29923;48.718;9.272;2023-09-12T04:09:35;18.85;;;8.75;;
44248;SDS011;29923;48.718;9.272;2023-09-12T04:12:00;17.58;;;9.98;;
44248;SDS011;29923;48.718;9.272;2023-09-12T04:14:26;15.27;;;8.52;;
44248;SDS011;29923;48.718;9.272;2023-09-12T04:16:51;19.80;;;10.30;;
44248;SDS011;29923;48.718;9.272;2023-09-12T04:19:17;23.73;;;9.40;;
44248;SDS011;29923;48.718;9.272;2023-09-12T04:21:42;22.25;;;9.30;;
44248;SDS011;29923;48.718;9.272;2023-09-12T04:24:07;19.48;;;9.07;;
44248;SDS011;29923;48.718;9.272;2023-09-12T04:26:33;19.73;;;9.25;;
44248;SDS011;29923;48.718;9.272;2023-09-12T04:28:58;15.45;;;9.30;;
44248;SDS011;29923;48.718;9.272;2023-09-12T04:31:24;15.32;;;8.85;;
44248;SDS011;29923;48.718;9.272;2023-09-12T04:33:52;20.60;;;9.05;;
44248;SDS011;29923;48.718;9.272;2023-09-12T04:36:18;16.45;;;8.75;;
44248;SDS011;29923;48.718;9.272;2023-09-12T04:38:44;21.80;;;9.48;;
44248;SDS011;29923;48.718;9.272;2023-09-12T04:41:11;14.63;;;9.07;;
44248;SDS011;29923;48.718;9.272;2023-09-12T04:43:40;15.95;;;9.68;;
44248;SDS011;29923;48.718;9.272;2023-09-12T04:46:05;15.27;;;8.85;;
44248;SDS011;29923;48.718;9.272;2023-09-12T04:48:30;19.17;;;10.88;;
44248;SDS011;29923;48.718;9.272;2023-09-12T04:50:56;17.65;;;10.63;;
44248;SDS011;29923;48.718;9.272;2023-09-12T04:53:21;21.08;;;9.10;;
44248;SDS011;29923;48.718;9.272;2023-09-12T04:55:47;14.85;;;8.82;;
44248;SDS011;29923;48.718;9.272;2023-09-12T04:58:12;13.60;;;9.27;;
44248;SDS011;29923;48.718;9.272;2023-09-12T05:00:38;21.42;;;8.75;;
44248;SDS011;29923;48.718;9.272;2023-09-12T05:03:04;22.30;;;9.35;;
44248;SDS011;29923;48.718;9.272;2023-09-12T05:05:29;16.17;;;9.68;;
44248;SDS011;29923;48.718;9.272;2023-09-12T05:07:55;14.48;;;8.93;;
44248;SDS011;29923;48.718;9.272;2023-09-12T05:10:20;19.38;;;9.50;;
44248;SDS011;29923;48.718;9.272;2023-09-12T05:12:45;19.40;;;9.13;;
44248;SDS011;29923;48.718;9.272;2023-09-12T05:15:11;19.15;;;9.15;;
44248;SDS011;29923;48.718;9.272;2023-09-12T05:17:36;18.92;;;9.68;;
44248;SDS011;29923;48.718;9.272;2023-09-12T05:20:02;16.13;;;9.13;;
44248;SDS011;29923;48.718;9.272;2023-09-12T05:22:29;24.85;;;9.50;;
44248;SDS011;29923;48.718;9.272;2023-09-12T05:24:55;23.35;;;8.45;;
44248;SDS011;29923;48.718;9.272;2023-09-12T05:27:20;21.70;;;9.27;;
44248;SDS011;29923;48.718;9.272;2023-09-12T05:29:46;22.50;;;10.50;;
44248;SDS011;29923;48.718;9.272;2023-09-12T05:32:11;22.55;;;10.02;;
44248;SDS011;29923;48.718;9.272;2023-09-12T05:34:36;22.85;;;10.05;;
44248;SDS011;29923;48.718;9.272;2023-09-12T05:37:02;23.33;;;8.82;;
44248;SDS011;29923;48.718;9.272;2023-09-12T05:39:28;17.98;;;10.85;;
44248;SDS011;29923;48.718;9.272;2023-09-12T05:41:53;18.33;;;9.50;;
44248;SDS011;29923;48.718;9.272;2023-09-12T05:44:18;24.50;;;11.43;;
44248;SDS011;29923;48.718;9.272;2023-09-12T05:46:47;14.38;;;10.07;;
44248;SDS011;29923;48.718;9.272;2023-09-12T05:49:13;23.63;;;9.13;;
44248;SDS011;29923;48.718;9.272;2023-09-12T05:51:39;22.80;;;8.82;;
44248;SDS011;29923;48.718;9.272;2023-09-12T05:54:04;20.33;;;9.10;;
44248;SDS011;29923;48.718;9.272;2023-09-12T05:56:30;18.67;;;9.23;;
44248;SDS011;29923;48.718;9.272;2023-09-12T05:58:55;13.68;;;8.90;;
44248;SDS011;29923;48.718;9.272;2023-09-12T06:01:21;13.75;;;9.00;;
44248;SDS011;29923;48.718;9.272;2023-09-12T06:03:46;16.02;;;7.65;;
44248;SDS011;29923;48.718;9.272;2023-09-12T06:06:11;14.30;;;9.13;;
44248;SDS011;29923;48.718;9.272;2023-09-12T06:08:37;18.73;;;9.02;;
44248;SDS011;29923;48.718;9.272;2023-09-12T06:11:03;22.48;;;9.70;;
44248;SDS011;29923;48.718;9.272;2023-09-12T06:13:28;15.38;;;9.57;;
44248;SDS011;29923;48.718;9.272;2023-09-12T06:15:54;21.73;;;10.57;;
44248;SDS011;29923;48.718;9.272;2023-09-12T06:18:19;12.73;;;8.68;;
44248;SDS011;29923;48.718;9.272;2023-09-12T06:20:45;19.13;;;9.75;;
44248;SDS011;29923;48.718;9.272;2023-09-12T06:23:10;19.55;;;9.68;;
44248;SDS011;29923;48.718;9.272;2023-09-12T06:25:36;16.80;;;9.20;;
44248;SDS011;29923;48.718;9.272;2023-09-12T06:28:01;15.65;;;9.23;;
44248;SDS011;29923;48.718;9.272;2023-09-12T06:30:26;17.17;;;8.90;;
44248;SDS011;29923;48.718;9.272;2023-09-12T06:32:52;18.90;;;9.85;;
44248;SDS011;29923;48.718;9.272;2023-09-12T06:35:17;16.08;;;8.93;;
44248;SDS011;29923;48.718;9.272;2023-09-12T06:37:43;18.83;;;8.82;;
44248;SDS011;29923;48.718;9.272;2023-09-12T06:40:08;24.05;;;13.18;;
44248;SDS011;29923;48.718;9.272;2023-09-12T06:42:34;24.90;;;10.07;;
44248;SDS011;29923;48.718;9.272;2023-09-12T06:44:59;20.80;;;8.60;;
44248;SDS011;29923;48.718;9.272;2023-09-12T06:47:24;20.27;;;9.60;;
44248;SDS011;29923;48.718;9.272;2023-09-12T06:49:50;20.92;;;10.73;;
44248;SDS011;29923;48.718;9.272;2023-09-12T06:52:15;19.70;;;9.93;;
44248;SDS011;29923;48.718;9.272;2023-09-12T06:54:41;21.23;;;9.32;;
44248;SDS011;29923;48.718;9.272;2023-09-12T06:57:06;18.98;;;10.40;;
44248;SDS011;29923;48.718;9.272;2023-09-12T06:59:32;18.98;;;8.35;;
44248;SDS011;29923;48.718;9.272;2023-09-12T07:01:57;18.13;;;8.60;;
44248;SDS011;29923;48.718;9.272;2023-09-12T07:04:23;15.77;;;9.82;;
44248;SDS011;29923;48.718;9.272;2023-09-12T07:06:49;25.95;;;9.30;;
44248;SDS011;29923;48.718;9.272;2023-09-12T07:09:14;25.05;;;8.85;;
44248;SDS011;29923;48.718;9.272;2023-09-12T07:11:42;18.00;;;9.43;;
44248;SDS011;29923;48.718;9.272;2023-09-12T07:14:08;17.23;;;8.52;;
44248;SDS011;29923;48.718;9.272;2023-09-12T07:16:35;25.08;;;9.93;;
44248;SDS011;29923;48.718;9.272;2023-09-12T07:19:00;22.83;;;8.93;;
44248;SDS011;29923;48.718;9.272;2023-09-12T07:21:26;25.63;;;8.82;;
44248;SDS011;29923;48.718;9.272;2023-09-12T07:23:51;24.85;;;8.85;;
44248;SDS011;29923;48.718;9.272;2023-09-12T07:26:16;39.08;;;10.75;;
44248;SDS011;29923;48.718;9.272;2023-09-12T07:28:42;41.70;;;11.38;;
44248;SDS011;29923;48.718;9.272;2023-09-12T07:31:07;39.90;;;11.00;;
44248;SDS011;29923;48.718;9.272;2023-09-12T07:33:33;33.83;;;11.07;;
44248;SDS011;29923;48.718;9.272;2023-09-12T07:35:58;33.63;;;10.77;;
44248;SDS011;29923;48.718;9.272;2023-09-12T07:38:24;19.45;;;10.90;;
44248;SDS011;29923;48.718;9.272;2023-09-12T07:40:50;35.78;;;11.57;;
44248;SDS011;29923;48.718;9.272;2023-09-12T07:43:15;26.50;;;10.48;;
44248;SDS011;29923;48.718;9.272;2023-09-12T07:45:40;27.48;;;10.57;;
44248;SDS011;29923;48.718;9.272;2023-09-12T07:48:06;29.55;;;10.20;;
44248;SDS011;29923;48.718;9.272;2023-09-12T07:50:34;34.28;;;9.68;;
44248;SDS011;29923;48.718;9.272;2023-09-12T07:52:59;23.13;;;9.73;;
44248;SDS011;29923;48.718;9.272;2023-09-12T07:55:25;27.95;;;11.13;;
44248;SDS011;29923;48.718;9.272;2023-09-12T07:57:50;30.95;;;9.90;;
44248;SDS011;29923;48.718;9.272;2023-09-12T08:00:16;23.02;;;9.48;;
44248;SDS011;29923;48.718;9.272;2023-09-12T08:02:42;27.90;;;8.80;;
44248;SDS011;29923;48.718;9.272;2023-09-12T08:05:07;31.33;;;10.18;;
44248;SDS011;29923;48.718;9.272;2023-09-12T08:07:33;27.13;;;9.55;;
44248;SDS011;29923;48.718;9.272;2023-09-12T08:09:59;33.22;;;10.02;;
44248;SDS011;29923;48.718;9.272;2023-09-12T08:12:25;28.70;;;10.25;;
44248;SDS011;29923;48.718;9.272;2023-09-12T08:14:52;30.60;;;10.77;;
44248;SDS011;29923;48.718;9.272;2023-09-12T08:17:18;26.23;;;9.88;;
44248;SDS011;29923;48.718;9.272;2023-09-12T08:19:43;30.50;;;10.85;;
44248;SDS011;29923;48.718;9.272;2023-09-12T08:22:09;24.70;;;9.77;;
44248;SDS011;29923;48.718;9.272;2023-09-12T08:24:35;24.15;;;8.75;;
44248;SDS011;29923;48.718;9.272;2023-09-12T08:27:01;26.27;;;8.82;;
44248;SDS011;29923;48.718;9.272;2023-09-12T08:29:29;23.80;;;8.80;;
44248;SDS011;29923;48.718;9.272;2023-09-12T08:31:56;20.38;;;8.70;;
44248;SDS011;29923;48.718;9.272;2023-09-12T08:34:21;33.35;;;8.93;;
44248;SDS011;29923;48.718;9.272;2023-09-12T08:36:47;19.83;;;7.85;;
44248;SDS011;29923;48.718;9.272;2023-09-12T08:39:13;20.90;;;9.35;;
44248;SDS011;29923;48.718;9.272;2023-09-12T08:41:41;17.60;;;9.68;;
44248;SDS011;29923;48.718;9.272;2023-09-12T08:44:07;26.42;;;8.45;;
44248;SDS011;29923;48.718;9.272;2023-09-12T08:46:32;18.67;;;9.35;;
44248;SDS011;29923;48.718;9.272;2023-09-12T08:48:57;23.63;;;9.77;;
44248;SDS011;29923;48.718;9.272;2023-09-12T08:51:23;19.38;;;7.85;;
44248;SDS011;29923;48.718;9.272;2023-09-12T08:53:49;14.43;;;7.93;;
44248;SDS011;29923;48.718;9.272;2023-09-12T08:56:15;27.88;;;8.50;;
44248;SDS011;29923;48.718;9.272;2023-09-12T08:58:40;16.90;;;8.18;;
44248;SDS011;29923;48.718;9.272;2023-09-12T09:01:06;13.85;;;8.25;;
44248;SDS011;29923;48.718;9.272;2023-09-12T09:03:31;21.33;;;9.07;;
44248;SDS011;29923;48.718;9.272;2023-09-12T09:05:57;14.68;;;8.15;;
44248;SDS011;29923;48.718;9.272;2023-09-12T09:08:23;23.33;;;9.25;;
44248;SDS011;29923;48.718;9.272;2023-09-12T09:10:55;14.75;;;7.78;;
44248;SDS011;29923;48.718;9.272;2023-09-12T09:13:27;17.50;;;8.32;;
44248;SDS011;29923;48.718;9.272;2023-09-12T09:16:09;21.40;;;8.35;;
44248;SDS011;29923;48.718;9.272;2023-09-12T09:21:20;14.82;;;7.90;;
44248;SDS011;29923;48.718;9.272;2023-09-12T09:23:49;16.23;;;8.80;;
44248;SDS011;29923;48.718;9.272;2023-09-12T09:26:15;13.95;;;7.63;;
44248;SDS011;29923;48.718;9.272;2023-09-12T09:28:40;17.25;;;7.63;;
44248;SDS011;29923;48.718;9.272;2023-09-12T09:31:12;17.95;;;8.77;;
44248;SDS011;29923;48.718;9.272;2023-09-12T09:33:41;25.38;;;8.07;;
44248;SDS011;29923;48.718;9.272;2023-09-12T09:36:10;21.25;;;8.40;;
44248;SDS011;29923;48.718;9.272;2023-09-12T09:38:36;14.20;;;8.02;;
44248;SDS011;29923;48.718;9.272;2023-09-12T09:41:05;15.30;;;7.82;;
44248;SDS011;29923;48.718;9.272;2023-09-12T09:43:31;14.40;;;7.15;;
44248;SDS011;29923;48.718;9.272;2023-09-12T09:45:57;15.77;;;7.00;;
44248;SDS011;29923;48.718;9.272;2023-09-12T09:48:23;13.63;;;7.25;;
44248;SDS011;29923;48.718;9.272;2023-09-12T09:50:52;11.57;;;6.80;;
44248;SDS011;29923;48.718;9.272;2023-09-12T09:53:21;16.85;;;7.32;;
44248;SDS011;29923;48.718;9.272;2023-09-12T09:55:51;13.98;;;7.43;;
44248;SDS011;29923;48.718;9.272;2023-09-12T09:58:16;15.02;;;6.68;;
44248;SDS011;29923;48.718;9.272;2023-09-12T10:00:42;15.85;;;7.00;;
44248;SDS011;29923;48.718;9.272;2023-09-12T10:03:08;20.70;;;7.22;;
44248;SDS011;29923;48.718;9.272;2023-09-12T10:05:36;13.15;;;7.47;;
44248;SDS011;29923;48.718;9.272;2023-09-12T10:08:02;14.73;;;7.28;;
44248;SDS011;29923;48.718;9.272;2023-09-12T10:10:30;15.50;;;6.93;;
44248;SDS011;29923;48.718;9.272;2023-09-12T10:12:58;11.00;;;7.40;;
44248;SDS011;29923;48.718;9.272;2023-09-12T10:15:25;19.90;;;7.10;;
44248;SDS011;29923;48.718;9.272;2023-09-12T10:17:57;16.80;;;7.53;;
44248;SDS011;29923;48.718;9.272;2023-09-12T10:20:25;11.32;;;7.30;;
44248;SDS011;29923;48.718;9.272;2023-09-12T10:23:14;17.40;;;7.03;;
44248;SDS011;29923;48.718;9.272;2023-09-12T10:25:45;13.82;;;7.28;;
44248;SDS011;29923;48.718;9.272;2023-09-12T10:28:11;11.57;;;7.80;;
44248;SDS011;29923;48.718;9.272;2023-09-12T10:30:37;14.40;;;6.93;;
44248;SDS011;29923;48.718;9.272;2023-09-12T10:33:02;13.57;;;7.05;;
44248;SDS011;29923;48.718;9.272;2023-09-12T10:35:32;17.55;;;7.10;;
44248;SDS011;29923;48.718;9.272;2023-09-12T10:38:02;17.77;;;7.03;;
44248;SDS011;29923;48.718;9.272;2023-09-12T10:40:31;15.47;;;6.67;;
44248;SDS011;29923;48.718;9.272;2023-09-12T10:42:57;13.07;;;6.88;;
44248;SDS011;29923;48.718;9.272;2023-09-12T10:45:22;16.98;;;6.28;;
44248;SDS011;29923;48.718;9.272;2023-09-12T10:47:48;18.98;;;7.13;;
44248;SDS011;29923;48.718;9.272;2023-09-12T10:50:13;16.30;;;6.35;;
44248;SDS011;29923;48.718;9.272;2023-09-12T10:52:39;29.02;;;22.55;;
44248;SDS011;29923;48.718;9.272;2023-09-12T10:55:06;12.13;;;6.93;;
44248;SDS011;29923;48.718;9.272;2023-09-12T10:57:32;19.63;;;6.45;;
44248;SDS011;29923;48.718;9.272;2023-09-12T11:02:28;17.17;;;6.90;;
44248;SDS011;29923;48.718;9.272;2023-09-12T11:04:59;14.02;;;6.53;;
44248;SDS011;29923;48.718;9.272;2023-09-12T11:10:15;14.05;;;6.15;;
44248;SDS011;29923;48.718;9.272;2023-09-12T11:12:51;12.50;;;6.32;;
44248;SDS011;29923;48.718;9.272;2023-09-12T11:15:18;12.52;;;6.43;;
44248;SDS011;29923;48.718;9.272;2023-09-12T11:17:49;23.45;;;6.20;;
44248;SDS011;29923;48.718;9.272;2023-09-12T11:20:16;10.45;;;5.70;;
44248;SDS011;29923;48.718;9.272;2023-09-12T11:22:45;18.48;;;5.88;;
44248;SDS011;29923;48.718;9.272;2023-09-12T11:25:21;11.80;;;6.03;;
44248;SDS011;29923;48.718;9.272;2023-09-12T11:32:45;13.88;;;5.68;;
44248;SDS011;29923;48.718;9.272;2023-09-12T11:35:11;13.65;;;5.85;;
44248;SDS011;29923;48.718;9.272;2023-09-12T11:37:38;13.90;;;5.80;;
44248;SDS011;29923;48.718;9.272;2023-09-12T11:40:23;12.15;;;5.88;;
44248;SDS011;29923;48.718;9.272;2023-09-12T11:42:58;11.02;;;5.97;;
44248;SDS011;29923;48.718;9.272;2023-09-12T11:45:23;8.15;;;5.07;;
44248;SDS011;29923;48.718;9.272;2023-09-12T11:47:49;13.65;;;5.25;;
44248;SDS011;29923;48.718;9.272;2023-09-12T11:53:08;14.75;;;4.95;;
44248;SDS011;29923;48.718;9.272;2023-09-12T11:55:35;11.50;;;5.35;;
44248;SDS011;29923;48.718;9.272;2023-09-12T11:58:02;13.25;;;5.13;;
44248;SDS011;29923;48.718;9.272;2023-09-12T12:00:28;10.52;;;5.32;;
44248;SDS011;29923;48.718;9.272;2023-09-12T12:02:54;10.65;;;5.43;;
44248;SDS011;29923;48.718;9.272;2023-09-12T12:05:20;12.50;;;5.45;;
44248;SDS011;29923;48.718;9.272;2023-09-12T12:07:46;8.60;;;5.38;;
44248;SDS011;29923;48.718;9.272;2023-09-12T12:10:12;11.43;;;4.60;;
44248;SDS011;29923;48.718;9.272;2023-09-12T12:12:38;12.40;;;5.40;;
44248;SDS011;29923;48.718;9.272;2023-09-12T12:15:03;14.43;;;5.03;;
44248;SDS011;29923;48.718;9.272;2023-09-12T12:17:35;11.32;;;5.65;;
44248;SDS011;29923;48.718;9.272;2023-09-12T12:20:02;7.57;;;4.70;;
44248;SDS011;29923;48.718;9.272;2023-09-12T12:22:32;9.70;;;4.90;;
44248;SDS011;29923;48.718;9.272;2023-09-12T12:24:57;14.95;;;5.28;;
44248;SDS011;29923;48.718;9.272;2023-09-12T12:27:39;11.50;;;5.30;;
44248;SDS011;29923;48.718;9.272;2023-09-12T12:30:07;7.60;;;5.22;;
44248;SDS011;29923;48.718;9.272;2023-09-12T12:32:36;12.98;;;5.60;;
44248;SDS011;29923;48.718;9.272;2023-09-12T12:35:21;10.55;;;4.70;;
44248;SDS011;29923;48.718;9.272;2023-09-12T12:37:52;10.05;;;4.22;;
44248;SDS011;29923;48.718;9.272;2023-09-12T12:40:20;16.40;;;5.18;;
44248;SDS011;29923;48.718;9.272;2023-09-12T12:42:45;12.32;;;5.25;;
44248;SDS011;29923;48.718;9.272;2023-09-12T12:45:12;14.80;;;4.57;;
44248;SDS011;29923;48.718;9.272;2023-09-12T12:47:41;13.02;;;4.63;;
44248;SDS011;29923;48.718;9.272;2023-09-12T12:50:13;17.30;;;5.45;;
44248;SDS011;29923;48.718;9.272;2023-09-12T12:52:39;11.45;;;4.72;;
44248;SDS011;29923;48.718;9.272;2023-09-12T12:55:06;11.68;;;5.07;;
44248;SDS011;29923;48.718;9.272;2023-09-12T12:57:35;8.32;;;4.68;;
44248;SDS011;29923;48.718;9.272;2023-09-12T13:00:11;10.10;;;4.68;;
44248;SDS011;29923;48.718;9.272;2023-09-12T13:02:40;6.47;;;4.05;;
44248;SDS011;29923;48.718;9.272;2023-09-12T13:05:19;6.88;;;4.40;;
44248;SDS011;29923;48.718;9.272;2023-09-12T13:07:45;7.97;;;4.72;;
44248;SDS011;29923;48.718;9.272;2023-09-12T13:10:11;12.27;;;4.68;;
44248;SDS011;29923;48.718;9.272;2023-09-12T13:12:36;12.73;;;5.03;;
44248;SDS011;29923;48.718;9.272;2023-09-12T13:15:03;12.98;;;5.28;;
44248;SDS011;29923;48.718;9.272;2023-09-12T13:17:29;9.55;;;4.18;;
44248;SDS011;29923;48.718;9.272;2023-09-12T13:19:54;8.23;;;4.32;;
44248;SDS011;29923;48.718;9.272;2023-09-12T13:22:19;8.15;;;4.47;;
44248;SDS011;29923;48.718;9.272;2023-09-12T13:24:45;9.10;;;5.20;;
44248;SDS011;29923;48.718;9.272;2023-09-12T13:27:11;12.75;;;4.35;;
44248;SDS011;29923;48.718;9.272;2023-09-12T13:29:37;9.95;;;4.78;;
44248;SDS011;29923;48.718;9.272;2023-09-12T13:32:02;12.13;;;4.82;;
44248;SDS011;29923;48.718;9.272;2023-09-12T13:34:28;12.75;;;4.30;;
44248;SDS011;29923;48.718;9.272;2023-09-12T13:36:53;11.43;;;5.10;;
44248;SDS011;29923;48.718;9.272;2023-09-12T13:39:18;7.15;;;4.80;;
44248;SDS011;29923;48.718;9.272;2023-09-12T13:41:44;10.10;;;4.30;;
44248;SDS011;29923;48.718;9.272;2023-09-12T13:44:11;11.27;;;4.45;;
44248;SDS011;29923;48.718;9.272;2023-09-12T13:46:36;9.30;;;4.28;;
44248;SDS011;29923;48.718;9.272;2023-09-12T13:49:01;8.70;;;4.80;;
44248;SDS011;29923;48.718;9.272;2023-09-12T13:51:28;10.98;;;4.40;;
44248;SDS011;29923;48.718;9.272;2023-09-12T13:53:54;7.85;;;4.47;;
44248;SDS011;29923;48.718;9.272;2023-09-12T13:56:19;10.35;;;4.28;;
44248;SDS011;29923;48.718;9.272;2023-09-12T13:58:44;9.13;;;4.25;;
44248;SDS011;29923;48.718;9.272;2023-09-12T14:01:10;19.00;;;5.15;;
44248;SDS011;29923;48.718;9.272;2023-09-12T14:03:35;7.63;;;4.43;;
44248;SDS011;29923;48.718;9.272;2023-09-12T14:06:01;13.73;;;5.10;;
44248;SDS011;29923;48.718;9.272;2023-09-12T14:08:26;11.88;;;5.32;;
44248;SDS011;29923;48.718;9.272;2023-09-12T14:10:51;12.63;;;4.55;;
44248;SDS011;29923;48.718;9.272;2023-09-12T14:13:17;16.38;;;4.80;;
44248;SDS011;29923;48.718;9.272;2023-09-12T14:15:42;18.98;;;5.18;;
44248;SDS011;29923;48.718;9.272;2023-09-12T14:18:07;14.52;;;4.90;;
44248;SDS011;29923;48.718;9.272;2023-09-12T14:20:33;11.30;;;4.28;;
44248;SDS011;29923;48.718;9.272;2023-09-12T14:22:58;7.85;;;4.80;;
44248;SDS011;29923;48.718;9.272;2023-09-12T14:25:24;8.00;;;4.80;;
44248;SDS011;29923;48.718;9.272;2023-09-12T14:27:49;13.80;;;5.15;;
44248;SDS011;29923;48.718;9.272;2023-09-12T14:30:14;18.35;;;4.55;;
44248;SDS011;29923;48.718;9.272;2023-09-12T14:32:40;20.55;;;5.25;;
44248;SDS011;29923;48.718;9.272;2023-09-12T14:35:05;15.20;;;5.35;;
44248;SDS011;29923;48.718;9.272;2023-09-12T14:37:32;10.73;;;4.57;;
44248;SDS011;29923;48.718;9.272;2023-09-12T14:39:57;13.57;;;5.30;;
44248;SDS011;29923;48.718;9.272;2023-09-12T14:42:23;9.02;;;5.13;;
44248;SDS011;29923;48.718;9.272;2023-09-12T14:44:48;10.23;;;4.93;;
44248;SDS011;29923;48.718;9.272;2023-09-12T14:47:14;18.27;;;5.20;;
44248;SDS011;29923;48.718;9.272;2023-09-12T14:49:39;13.25;;;5.68;;